Happy Valentine's Day! 

Flight Track Log - Related Links

Times and Time Zones

All times are in EDT time to prevent confusion due to time zone crossing. See the PDT4147 flight status page for this flight to view local times or setup timezone preferences in your user account.


Time Position Orientation Groundspeed Altitude Reporting Facility
EDT Latitude Longitude Course Direction KTS MPH feet Rate Location/Type
Fri 03:03:59 PM 35.1992 -80.9353 71° East 138 159 1,400  Level Atlanta Center
Fri 03:04:24 PM 35.1922 -80.9128 111° Southeast 156 180 2,000 1,116 Climbing Atlanta Center
Fri 03:05:25 PM 35.1928 -80.8517 89° East 193 222 3,000 984 Climbing Atlanta Center
Fri 03:06:00 PM 35.2836 -80.6492 64° Northeast  Level FlightAware Approximate
Fri 03:06:26 PM 35.2119 -80.7850 71° East 226 260 4,000  Level Atlanta Center
Fri 03:07:00 PM 35.3196 -80.5563 71° East  Level FlightAware Approximate
Fri 03:07:27 PM 35.2392 -80.7125 65° Northeast 239 275 4,800  Level Atlanta Center
Fri 03:08:00 PM 35.3470 -80.4591 71° East  Level FlightAware Approximate
Fri 03:08:28 PM 35.2683 -80.6300 67° East 251 289 4,900  Level Atlanta Center
Fri 03:09:00 PM 35.3743 -80.3617 71° East  Level FlightAware Approximate
Fri 03:09:24 PM 35.2953 -80.5553 66° East 265 305 6,100  Level Atlanta Center
Fri 03:10:25 PM 35.3186 -80.4931 65° Northeast 196 226 7,800 1,672 Climbing Atlanta Center
Fri 03:12:00 PM 35.3692 -80.3423 68° East  Level FlightAware Approximate
Fri 03:19:00 PM 35.8241 -80.0716 North  Level FlightAware Approximate
Fri 03:20:00 PM 35.9079 -80.0651 North  Level FlightAware Approximate
Fri 03:21:00 PM 35.9917 -80.0587 North  Level FlightAware Approximate
Fri 03:22:00 PM 36.0755 -80.0523 North  Level FlightAware Approximate
Fri 03:23:00 PM 36.1592 -80.0459 North  Level FlightAware Approximate
Fri 03:24:00 PM 36.2430 -80.0394 North  Level FlightAware Approximate
Fri 03:25:00 PM 36.3268 -80.0329 North  Level FlightAware Approximate
Fri 03:26:00 PM 36.4106 -80.0264 North  Level FlightAware Approximate
Fri 03:27:00 PM 36.4944 -80.0199 North  Level FlightAware Approximate
Fri 03:28:00 PM 36.5782 -80.0134 North  Level FlightAware Approximate
Fri 03:29:00 PM 36.6619 -80.0069 North  Level FlightAware Approximate
Fri 03:30:00 PM 36.7457 -80.0003 North  Level FlightAware Approximate
Fri 03:31:00 PM 36.8297 -80.0000 North  Level FlightAware Approximate
Fri 03:32:00 PM 36.9136 -80.0000 North  Level FlightAware Approximate
Fri 03:33:00 PM 36.9958 -79.9833 North  Level FlightAware Approximate
Fri 03:34:00 PM 37.0798 -79.9833 360° North  Level FlightAware Approximate
Fri 03:35:00 PM 37.1637 -79.9833 North  Level FlightAware Approximate
Fri 03:36:00 PM 37.2468 -79.9706 North  Level FlightAware Approximate
Fri 03:37:00 PM 37.3167 -79.9667 North  Level FlightAware Approximate
Fri 03:38:00 PM 37.3255 -79.9754 North  Level Estimated
Fri 03:39:00 PM 37.3255 -79.9754 North  Level Estimated
Fri 03:40:00 PM 37.3255 -79.9754 North  Level Estimated
Fri 03:41:00 PM 37.3255 -79.9754 North  Level Estimated
Fri 03:42:00 PM 37.3255 -79.9754 North  Level Estimated
Fri 03:43:00 PM 37.3255 -79.9754 North  Level Estimated
Fri 03:44:00 PM 37.3255 -79.9754 North  Level Estimated
Fri 03:45:00 PM 37.3255 -79.9754 North  Level Estimated

Login

Don't have an account? Register now (free) for customized features, flight alerts, and more!